createdAt,value
2018-07-02T00:00:12.881Z,49.20
2018-07-02T00:02:41.374Z,49.70
2018-07-02T00:05:09.945Z,49.80
2018-07-02T00:07:38.972Z,50.00
2018-07-02T00:10:09.288Z,50.90
2018-07-02T00:12:37.772Z,50.00
2018-07-02T00:15:06.421Z,50.40
2018-07-02T00:17:34.945Z,50.80
2018-07-02T00:20:03.330Z,50.60
2018-07-02T00:22:31.819Z,50.40
2018-07-02T00:25:00.278Z,50.90
2018-07-02T00:27:28.754Z,50.70
2018-07-02T00:29:57.312Z,51.00
2018-07-02T00:32:26.397Z,51.30
2018-07-02T00:34:54.856Z,51.00
2018-07-02T00:37:23.335Z,51.50
2018-07-02T00:39:51.807Z,51.80
2018-07-02T00:42:20.310Z,51.50
2018-07-02T00:44:48.789Z,51.90
2018-07-02T00:47:17.278Z,52.20
2018-07-02T00:49:45.750Z,52.20
2018-07-02T00:52:14.231Z,52.20
2018-07-02T00:54:42.694Z,53.10
2018-07-02T00:57:11.189Z,53.10
2018-07-02T00:59:39.672Z,54.70
2018-07-02T01:02:08.158Z,54.40
2018-07-02T01:04:36.622Z,54.70
2018-07-02T01:07:05.164Z,55.70
2018-07-02T01:09:33.622Z,55.30
2018-07-02T01:14:30.564Z,55.70
2018-07-02T01:16:59.004Z,56.20
2018-07-02T01:19:27.587Z,56.00
2018-07-02T01:21:56.031Z,56.80
2018-07-02T01:24:24.495Z,57.90
2018-07-02T01:26:52.968Z,57.70
2018-07-02T01:29:21.436Z,57.90
2018-07-02T01:31:49.956Z,56.90
2018-07-02T01:34:18.409Z,56.80
2018-07-02T01:36:46.873Z,57.70
2018-07-02T01:39:15.327Z,57.60
2018-07-02T01:41:44.130Z,58.00
2018-07-02T01:44:12.566Z,58.10
2018-07-02T01:46:41.038Z,58.80
2018-07-02T01:49:09.517Z,58.20
2018-07-02T01:51:37.981Z,57.70
2018-07-02T01:54:06.763Z,58.30
2018-07-02T01:56:36.019Z,59.00
2018-07-02T01:59:04.506Z,58.80
2018-07-02T02:01:32.982Z,58.50
2018-07-02T02:04:01.460Z,59.00
2018-07-02T02:06:29.928Z,59.40
2018-07-02T02:11:26.931Z,59.10
2018-07-02T02:13:55.389Z,59.50
2018-07-02T02:16:23.896Z,60.00
2018-07-02T02:18:52.371Z,60.50
2018-07-02T02:21:20.815Z,61.50
2018-07-02T02:23:49.286Z,61.40
2018-07-02T02:26:17.758Z,61.70
2018-07-02T02:28:46.570Z,62.10
2018-07-02T02:31:15.025Z,62.50
2018-07-02T02:33:43.461Z,64.90
2018-07-02T02:36:11.919Z,63.60
2018-07-02T02:38:40.737Z,63.80
2018-07-02T02:41:09.213Z,64.80
2018-07-02T02:43:37.739Z,64.90
2018-07-02T02:46:06.371Z,65.30
2018-07-02T02:48:34.822Z,65.20
2018-07-02T02:51:03.844Z,66.50
2018-07-02T02:53:32.330Z,66.30
2018-07-02T02:56:01.167Z,66.00
2018-07-02T02:58:29.623Z,66.50
2018-07-02T03:00:58.227Z,67.80
2018-07-02T03:03:26.695Z,68.40
2018-07-02T03:05:55.154Z,69.10
2018-07-02T03:08:23.604Z,67.70
2018-07-02T03:10:52.062Z,69.30
2018-07-02T03:13:20.504Z,69.40
2018-07-02T03:15:48.932Z,69.00
2018-07-02T03:18:17.417Z,69.90
2018-07-02T03:20:45.887Z,69.00
2018-07-02T03:23:14.375Z,69.50
2018-07-02T03:25:42.807Z,69.80
2018-07-02T03:28:11.288Z,68.60
2018-07-02T03:30:39.799Z,68.90
2018-07-02T03:33:08.237Z,70.00
2018-07-02T03:35:36.711Z,69.00
2018-07-02T03:38:05.296Z,70.20
2018-07-02T03:40:33.755Z,69.70
2018-07-02T03:43:02.229Z,68.60
2018-07-02T03:45:30.712Z,70.00
2018-07-02T03:47:59.168Z,69.50
2018-07-02T03:50:27.934Z,69.90
2018-07-02T03:52:56.414Z,69.90
2018-07-02T03:55:24.870Z,70.60
2018-07-02T03:57:53.335Z,70.40
2018-07-02T04:00:22.727Z,70.70
2018-07-02T04:02:51.167Z,72.00
2018-07-02T04:05:19.709Z,71.60
2018-07-02T04:07:48.165Z,72.40
2018-07-02T04:10:16.651Z,72.40
2018-07-02T04:12:45.182Z,71.40
2018-07-02T04:15:13.642Z,72.60
2018-07-02T04:17:42.118Z,71.70
2018-07-02T04:20:10.589Z,72.40
2018-07-02T04:22:40.055Z,72.60
2018-07-02T04:25:08.529Z,74.20
2018-07-02T04:27:37.115Z,72.90
2018-07-02T04:30:05.626Z,72.20
2018-07-02T04:32:34.098Z,73.60
2018-07-02T04:35:02.592Z,72.00
2018-07-02T04:37:31.061Z,73.20
2018-07-02T04:39:59.596Z,72.90
2018-07-02T04:42:28.065Z,74.20
2018-07-02T04:44:56.527Z,72.80
2018-07-02T04:47:25.330Z,72.40
2018-07-02T04:49:53.812Z,74.50
2018-07-02T04:52:22.352Z,73.70
2018-07-02T04:54:50.779Z,73.90
2018-07-02T04:57:19.248Z,73.70
2018-07-02T04:59:47.557Z,73.40
2018-07-02T05:02:15.954Z,73.90
2018-07-02T05:04:44.237Z,73.00
2018-07-02T05:07:12.507Z,74.20
2018-07-02T05:09:40.765Z,73.40
2018-07-02T05:12:10.872Z,75.10
2018-07-02T05:14:40.111Z,74.10
2018-07-02T05:17:08.734Z,74.20
2018-07-02T05:19:37.050Z,74.70
2018-07-02T05:22:05.322Z,75.80
2018-07-02T05:24:33.626Z,75.30
2018-07-02T05:27:01.936Z,74.90
2018-07-02T05:29:30.232Z,74.20
2018-07-02T05:31:58.533Z,73.50
2018-07-02T05:34:26.779Z,72.90
2018-07-02T05:36:55.420Z,72.10
2018-07-02T05:39:24.018Z,73.20
2018-07-02T05:41:52.721Z,72.00
2018-07-02T05:44:21.030Z,72.50
2018-07-02T05:46:49.309Z,71.40
2018-07-02T05:49:17.581Z,71.60
2018-07-02T05:51:45.836Z,69.00
2018-07-02T05:54:14.458Z,68.50
2018-07-02T05:56:42.792Z,69.00
2018-07-02T05:59:11.524Z,68.20
2018-07-02T06:01:39.778Z,70.20
2018-07-02T06:04:11.200Z,67.20
2018-07-02T06:06:39.496Z,65.10
2018-07-02T06:11:45.584Z,65.10
2018-07-02T06:14:13.880Z,64.30
2018-07-02T06:16:42.189Z,62.00
2018-07-02T06:19:10.652Z,63.00
2018-07-02T06:21:38.949Z,62.00
2018-07-02T06:24:07.435Z,62.20
2018-07-02T06:26:35.729Z,63.00
2018-07-02T06:29:04.007Z,59.60
2018-07-02T06:31:32.839Z,59.00
2018-07-02T06:34:05.063Z,58.60
2018-07-02T06:36:43.423Z,58.00
2018-07-02T06:39:12.267Z,58.30
2018-07-02T06:41:41.182Z,57.80
2018-07-02T06:44:10.031Z,56.70
2018-07-02T06:46:38.874Z,56.20
2018-07-02T06:49:07.735Z,57.50
2018-07-02T06:51:36.582Z,56.50
2018-07-02T06:54:06.258Z,56.40
2018-07-02T06:56:35.156Z,54.90
2018-07-02T06:59:04.183Z,54.50
2018-07-02T07:01:33.332Z,54.00
2018-07-02T07:04:01.940Z,53.80
2018-07-02T07:06:30.764Z,53.90
2018-07-02T07:08:59.576Z,54.00
2018-07-02T07:11:28.399Z,54.00
2018-07-02T07:13:57.599Z,53.80
2018-07-02T07:16:26.425Z,54.60
2018-07-02T07:21:23.908Z,52.70
2018-07-02T07:26:24.587Z,52.80
2018-07-02T07:29:02.830Z,52.10
2018-07-02T07:31:31.751Z,51.80
2018-07-02T07:34:00.659Z,50.40
2018-07-02T07:38:58.361Z,51.90
2018-07-02T07:41:27.273Z,50.00
2018-07-02T07:43:56.236Z,49.70
2018-07-02T07:46:25.376Z,48.70
2018-07-02T07:48:54.367Z,49.30
2018-07-02T07:51:23.276Z,49.00
2018-07-02T07:53:52.263Z,50.80
2018-07-02T07:56:21.268Z,49.20
2018-07-02T08:05:35.115Z,49.50
2018-07-02T08:08:04.033Z,47.20
2018-07-02T08:10:33.102Z,47.40
2018-07-02T08:13:02.121Z,47.90
2018-07-02T08:15:30.980Z,48.60
2018-07-02T08:17:59.846Z,46.50
2018-07-02T08:20:29.011Z,46.50
2018-07-02T08:22:58.319Z,46.90
2018-07-02T08:25:27.211Z,45.80
2018-07-02T08:27:56.098Z,46.00
2018-07-02T08:30:24.990Z,46.20
2018-07-02T08:32:53.959Z,46.50
2018-07-02T08:35:23.027Z,47.10
2018-07-02T08:37:51.932Z,47.50
2018-07-02T08:40:20.778Z,44.30
2018-07-02T08:42:49.700Z,44.80
2018-07-02T08:45:19.083Z,44.00
2018-07-02T08:47:48.052Z,45.80
2018-07-02T08:50:16.973Z,45.50
2018-07-02T08:52:45.829Z,45.10
2018-07-02T08:55:14.871Z,46.20
2018-07-02T08:57:43.729Z,44.90
2018-07-02T09:00:13.272Z,44.40
2018-07-02T09:02:42.176Z,44.80
2018-07-02T09:05:10.864Z,42.10
2018-07-02T09:07:39.843Z,42.40
2018-07-02T09:10:08.825Z,42.30
2018-07-02T09:12:37.852Z,42.50
2018-07-02T09:15:07.079Z,41.90
2018-07-02T09:17:44.605Z,42.80
2018-07-02T09:20:13.472Z,41.40
2018-07-02T09:24:11.623Z,42.80
2018-07-02T09:26:40.561Z,42.60
2018-07-02T09:29:12.721Z,42.50
2018-07-02T09:31:41.746Z,42.70
2018-07-02T09:34:11.207Z,43.00
2018-07-02T09:36:40.561Z,42.50
2018-07-02T09:39:11.969Z,42.00
2018-07-02T09:41:41.008Z,43.10
2018-07-02T09:44:09.893Z,41.20
2018-07-02T09:46:38.843Z,41.70
2018-07-02T09:49:07.873Z,42.60
2018-07-02T09:51:36.704Z,42.50
2018-07-02T09:54:05.900Z,43.90
2018-07-02T09:56:34.748Z,42.20
2018-07-02T09:59:03.670Z,41.90
2018-07-02T10:01:41.817Z,45.10
2018-07-02T10:04:10.719Z,45.60
2018-07-02T10:06:39.653Z,45.10
2018-07-02T10:09:10.981Z,42.90
2018-07-02T10:11:39.858Z,42.10
2018-07-02T10:14:08.832Z,41.70
2018-07-02T10:16:37.742Z,42.40
2018-07-02T10:19:06.985Z,43.50
2018-07-02T10:21:36.161Z,41.10
2018-07-02T10:26:33.854Z,40.20
2018-07-02T10:29:02.821Z,41.30
2018-07-02T10:31:31.889Z,41.10
2018-07-02T10:34:00.809Z,42.00
2018-07-02T10:36:29.739Z,38.20
2018-07-02T10:38:58.617Z,44.00
2018-07-02T10:41:27.517Z,41.60
2018-07-02T10:43:56.365Z,38.40
2018-07-02T10:46:25.306Z,37.60
2018-07-02T10:48:54.148Z,37.10
2018-07-02T10:51:23.040Z,41.30
2018-07-02T10:53:52.186Z,36.60
2018-07-02T10:56:21.016Z,37.70
2018-07-02T11:01:18.744Z,37.20
2018-07-02T11:03:47.815Z,37.20
2018-07-02T11:06:16.851Z,40.80
2018-07-02T11:08:46.380Z,40.90
2018-07-02T11:11:15.435Z,38.10
2018-07-02T11:16:12.986Z,39.40
2018-07-02T11:18:41.857Z,39.80
2018-07-02T11:21:10.694Z,38.30
2018-07-02T11:23:39.562Z,36.70
2018-07-02T11:26:08.562Z,39.60
2018-07-02T11:28:37.452Z,37.60
2018-07-02T11:31:06.379Z,37.50
2018-07-02T11:33:35.175Z,36.70
2018-07-02T11:36:04.005Z,39.00
2018-07-02T11:38:32.833Z,40.30
2018-07-02T11:41:02.170Z,37.40
2018-07-02T11:43:40.411Z,35.50
2018-07-02T11:46:09.223Z,36.90
2018-07-02T11:48:38.092Z,38.30
2018-07-02T11:51:07.239Z,36.30
2018-07-02T11:53:36.049Z,36.00
2018-07-02T11:56:04.912Z,42.00
2018-07-02T11:58:33.762Z,41.20
2018-07-02T12:01:02.583Z,40.00
2018-07-02T12:03:31.018Z,39.80
2018-07-02T12:05:59.832Z,40.30
2018-07-02T12:08:28.612Z,42.60
2018-07-02T12:10:57.475Z,39.60
2018-07-02T12:13:26.293Z,39.70
2018-07-02T12:15:55.083Z,42.70
2018-07-02T12:18:24.159Z,39.70
2018-07-02T12:20:52.956Z,37.70
2018-07-02T12:23:22.031Z,40.90
2018-07-02T12:25:50.854Z,40.00
2018-07-02T12:28:19.727Z,38.10
2018-07-02T12:30:48.750Z,39.90
2018-07-02T12:33:17.591Z,38.70
2018-07-02T12:35:46.760Z,40.00
2018-07-02T12:38:15.587Z,38.20
2018-07-02T12:40:44.407Z,38.90
2018-07-02T12:43:12.971Z,40.00
2018-07-02T12:45:41.827Z,40.20
2018-07-02T12:48:10.645Z,36.50
2018-07-02T12:50:39.447Z,40.70
2018-07-02T12:53:08.288Z,40.10
2018-07-02T12:55:36.871Z,39.30
2018-07-02T12:58:05.719Z,38.80
2018-07-02T13:00:34.512Z,39.40
2018-07-02T13:03:03.384Z,37.10
2018-07-02T13:05:31.903Z,38.00
2018-07-02T13:08:00.723Z,41.80
2018-07-02T13:10:29.549Z,39.20
2018-07-02T13:12:58.114Z,39.50
2018-07-02T13:15:26.904Z,41.60
2018-07-02T13:17:55.721Z,38.80
2018-07-02T13:20:24.819Z,40.00
2018-07-02T13:22:53.672Z,40.50
2018-07-02T13:25:22.818Z,42.10
2018-07-02T13:27:51.432Z,41.10
2018-07-02T13:33:11.334Z,40.90
2018-07-02T13:35:40.175Z,41.10
2018-07-02T13:38:09.363Z,41.30
2018-07-02T13:40:38.283Z,39.80
2018-07-02T13:45:35.728Z,38.20
2018-07-02T13:48:04.815Z,40.50
2018-07-02T13:50:33.728Z,40.00
2018-07-02T13:53:03.209Z,40.30
2018-07-02T13:55:31.806Z,38.60
2018-07-02T13:58:00.419Z,40.10
2018-07-02T14:00:29.230Z,41.70
2018-07-02T14:02:57.754Z,37.10
2018-07-02T14:05:26.276Z,39.50
2018-07-02T14:07:55.153Z,39.10
2018-07-02T14:10:23.707Z,39.30
2018-07-02T14:12:52.284Z,38.90
2018-07-02T14:15:21.688Z,41.00
2018-07-02T14:17:50.758Z,38.50
2018-07-02T14:22:47.832Z,39.50
2018-07-02T14:25:16.753Z,39.60
2018-07-02T14:27:45.484Z,38.70
2018-07-02T15:38:56.627Z,30.00
2018-07-02T15:41:25.209Z,30.00
2018-07-02T15:43:54.006Z,29.50
2018-07-02T15:46:22.616Z,28.40
2018-07-02T15:48:51.252Z,27.90
2018-07-02T15:51:19.792Z,28.40
2018-07-02T15:53:48.391Z,27.50
2018-07-02T15:56:17.009Z,27.60
2018-07-02T15:58:45.560Z,28.10
2018-07-02T16:01:14.195Z,27.90
2018-07-02T16:03:42.780Z,25.90
2018-07-02T16:06:11.369Z,27.00
2018-07-02T16:08:39.989Z,27.10
2018-07-02T16:11:08.593Z,26.20
2018-07-02T16:13:37.251Z,26.00
2018-07-02T16:16:05.992Z,26.60
2018-07-02T16:18:34.639Z,25.40
2018-07-02T16:21:03.179Z,26.70
2018-07-02T16:23:31.760Z,25.30
2018-07-02T16:26:00.436Z,25.50
2018-07-02T16:28:28.962Z,25.70
2018-07-02T16:30:57.522Z,25.80
2018-07-02T16:33:26.075Z,25.60
2018-07-02T16:35:54.633Z,24.20
2018-07-02T16:38:23.209Z,24.20
2018-07-02T16:40:51.853Z,23.40
2018-07-02T16:43:20.746Z,23.00
2018-07-02T16:45:49.685Z,22.50
2018-07-02T16:48:18.299Z,23.80
2018-07-02T16:50:46.991Z,23.20
2018-07-02T16:53:18.906Z,23.40
2018-07-02T16:55:47.781Z,23.50
2018-07-02T17:01:09.581Z,22.50
2018-07-02T17:03:38.185Z,21.60
2018-07-02T17:06:06.770Z,22.60
2018-07-02T17:11:04.069Z,23.40
2018-07-02T17:13:32.871Z,24.50
2018-07-02T17:16:01.761Z,25.20
2018-07-02T17:18:30.575Z,26.00
2018-07-02T17:20:59.137Z,27.30
2018-07-02T17:23:28.017Z,27.40
2018-07-02T17:25:56.852Z,27.60
2018-07-02T17:28:25.487Z,29.10
2018-07-02T17:33:28.283Z,31.40
2018-07-02T17:35:59.926Z,31.40
2018-07-02T17:38:37.728Z,32.30
2018-07-02T17:43:41.208Z,31.90
2018-07-02T17:46:09.806Z,34.90
2018-07-02T17:48:38.394Z,33.70
2018-07-02T17:51:07.623Z,33.00
2018-07-02T17:53:36.516Z,35.10
2018-07-02T17:56:05.904Z,35.10
2018-07-02T17:58:34.773Z,35.90
2018-07-02T18:01:03.756Z,36.90
2018-07-02T18:06:01.036Z,35.30
2018-07-02T18:08:30.265Z,38.40
2018-07-02T18:10:59.355Z,35.80
2018-07-02T18:13:28.205Z,38.00
2018-07-02T18:15:57.032Z,38.90
2018-07-02T18:18:25.942Z,38.90
2018-07-02T18:23:23.369Z,40.00
2018-07-02T18:25:52.398Z,40.70
2018-07-02T18:28:21.606Z,42.30
2018-07-02T18:30:50.482Z,44.10
2018-07-02T18:33:19.813Z,47.10
2018-07-02T18:35:48.677Z,47.90
2018-07-02T18:38:17.497Z,49.90
2018-07-02T18:40:46.368Z,52.00
2018-07-02T18:43:15.245Z,51.90
2018-07-02T18:45:44.269Z,52.40
2018-07-02T18:48:13.455Z,53.80
2018-07-02T18:50:42.322Z,53.00
2018-07-02T18:53:11.182Z,53.70
2018-07-02T18:55:40.353Z,54.80
2018-07-02T18:58:09.192Z,56.30
2018-07-02T19:00:44.154Z,56.50
2018-07-02T19:03:12.998Z,57.10
2018-07-02T19:05:41.921Z,56.90
2018-07-02T19:08:14.242Z,58.00
2018-07-02T19:10:43.157Z,58.30
2018-07-02T19:13:21.533Z,59.10
2018-07-02T19:15:50.861Z,59.30
2018-07-02T19:18:19.781Z,59.90
2018-07-02T19:20:48.877Z,62.80
2018-07-02T19:23:21.126Z,63.40
2018-07-02T19:25:51.256Z,66.80
2018-07-02T19:30:55.349Z,68.80
2018-07-02T19:33:24.704Z,70.20
2018-07-02T19:35:53.624Z,69.00
2018-07-02T19:38:22.499Z,72.60
2018-07-02T19:40:51.452Z,72.80
2018-07-02T19:43:20.677Z,74.30
2018-07-02T19:45:51.042Z,76.60
2018-07-02T19:48:30.043Z,73.40
2018-07-02T19:50:59.210Z,75.60
2018-07-02T19:53:28.623Z,77.50
2018-07-02T19:55:58.436Z,78.50
2018-07-02T19:58:28.059Z,77.80
2018-07-02T20:00:58.030Z,80.20
2018-07-02T20:03:27.579Z,80.10
2018-07-02T20:05:56.602Z,77.80
2018-07-02T20:08:25.899Z,78.90
2018-07-02T20:10:56.021Z,80.40
2018-07-02T20:13:25.192Z,81.40
2018-07-02T20:15:54.505Z,81.50
2018-07-02T20:18:23.566Z,79.70
2018-07-02T20:20:52.888Z,82.40
2018-07-02T20:23:21.841Z,81.80
2018-07-02T20:25:50.318Z,83.10
2018-07-02T20:28:21.969Z,83.50
2018-07-02T20:30:50.423Z,83.60
2018-07-02T20:35:47.082Z,83.70
2018-07-02T20:38:15.772Z,83.90
2018-07-02T20:40:45.157Z,83.70
2018-07-02T20:43:15.188Z,81.30
2018-07-02T20:45:46.439Z,84.80
2018-07-02T20:48:15.375Z,86.10
2018-07-02T20:50:44.198Z,84.20
2018-07-02T20:53:13.683Z,84.90
2018-07-02T20:58:13.647Z,85.50
2018-07-02T21:00:42.465Z,82.90
2018-07-02T21:03:10.872Z,85.00
2018-07-02T21:05:39.281Z,84.60
2018-07-02T21:08:08.863Z,87.20
2018-07-02T21:10:37.795Z,85.20
2018-07-02T21:13:06.713Z,88.00
2018-07-02T21:15:35.116Z,88.30
2018-07-02T21:18:04.237Z,88.30
2018-07-02T21:20:33.533Z,89.20
2018-07-02T21:23:03.454Z,90.00
2018-07-02T21:25:32.000Z,86.90
2018-07-02T21:28:01.097Z,86.60
2018-07-02T21:30:29.800Z,89.80
2018-07-02T21:32:58.440Z,89.00
2018-07-02T21:35:26.732Z,86.70
2018-07-02T21:37:55.128Z,88.00
2018-07-02T21:40:23.421Z,85.00
2018-07-02T21:42:51.885Z,85.00
2018-07-02T21:45:20.221Z,86.60
2018-07-02T21:47:48.726Z,86.60
2018-07-02T21:50:17.276Z,83.00
2018-07-02T21:52:45.675Z,83.10
2018-07-02T21:55:14.279Z,84.00
2018-07-02T21:57:42.544Z,83.20
2018-07-02T22:00:12.931Z,85.80
2018-07-02T22:02:41.219Z,84.80
2018-07-02T22:05:10.235Z,81.20
2018-07-02T22:07:39.826Z,81.10
2018-07-02T22:10:08.509Z,83.20
2018-07-02T22:12:36.823Z,82.10
2018-07-02T22:15:05.392Z,85.40
2018-07-02T22:17:33.807Z,85.60
2018-07-02T22:20:02.213Z,84.90
2018-07-02T22:22:31.114Z,85.90
2018-07-02T22:24:59.481Z,84.60
2018-07-02T22:27:27.838Z,84.90
2018-07-02T22:29:56.734Z,84.30
2018-07-02T22:32:25.159Z,84.00
2018-07-02T22:34:53.614Z,89.10
2018-07-02T22:37:21.882Z,85.90
2018-07-02T22:39:50.518Z,86.20
2018-07-02T22:42:18.806Z,89.30
2018-07-02T22:44:47.069Z,89.10
2018-07-02T22:47:15.372Z,88.60
2018-07-02T22:49:43.711Z,90.10
2018-07-02T22:52:12.277Z,89.40
2018-07-02T22:54:40.608Z,91.80
2018-07-02T22:57:08.885Z,90.30
2018-07-02T22:59:37.136Z,91.30
2018-07-02T23:02:05.402Z,90.60
2018-07-02T23:04:33.657Z,91.60
2018-07-02T23:07:01.952Z,92.10
2018-07-02T23:09:30.381Z,91.70
2018-07-02T23:11:58.665Z,92.10
2018-07-02T23:14:26.915Z,92.20
2018-07-02T23:16:55.189Z,91.60
2018-07-02T23:19:23.494Z,92.20
2018-07-02T23:21:51.807Z,92.10
2018-07-02T23:24:20.054Z,93.00
2018-07-02T23:26:48.495Z,92.90
2018-07-02T23:29:16.777Z,93.40
2018-07-02T23:31:45.331Z,92.80
2018-07-02T23:34:13.563Z,93.50
2018-07-02T23:36:41.817Z,93.00
2018-07-02T23:39:11.846Z,94.20
2018-07-02T23:41:40.546Z,94.00
2018-07-02T23:44:08.883Z,92.80
2018-07-02T23:46:37.158Z,93.70
2018-07-02T23:49:06.008Z,93.30
2018-07-02T23:51:34.273Z,94.10
2018-07-02T23:54:02.526Z,93.90
2018-07-02T23:56:30.838Z,93.70
2018-07-02T23:58:59.106Z,93.80
